WXM80 ListenWXM80 Stop

You find our weather info also at:

UK Metoffice

WeatherCloud

Weather Underground

Northeastern Weather Network

AWEKAS

Citizen Weather Observer Program (CWOP)

HAMweather, WeatherForYou, PWS Weather


Weather Underground History page Text

Daily Summary for April 4, 2017 Units:  English    Metric   Both
« Previous Day
Next Day »
Daily Weekly Monthly Yearly Custom
  High: Low: Average:
Temperature: 52.6 °F 42.4 °F 46.1 °F
Dew Point: 52.0 °F 34.8 °F 44.4 °F
Humidity: 98 % 53 % 94 %
Wind Speed: 11.8 mph 0.0 mph 4.4 mph
Wind Gust: 19.6 mph - -
Wind:- - East
Pressure: 29.87 in 29.54 in -
Precipitation: 0.00 in    
Historical Graphs
 
 
Tabular Data for April 4, 2017
Time Temperature Dew Point Pressure Wind Wind Speed Wind Gust Humidity Rainfall Rate (Hourly)
00:01 51.4 °F 34.8 °F 29.87 in SE 2.3 mph 6.9 mph 53 % 0.00 in
00:02 51.4 °F 34.8 °F 29.87 in SE 1.7 mph 4.0 mph 53 % 0.00 in
00:07 51.4 °F 34.8 °F 29.86 in SE 2.4 mph 3.5 mph 53 % 0.00 in
00:12 51.5 °F 35.4 °F 29.86 in SE 0.9 mph 3.0 mph 54 % 0.00 in
00:17 51.5 °F 36.8 °F 29.86 in SSE 0.3 mph 3.5 mph 57 % 0.00 in
00:22 51.5 °F 37.2 °F 29.85 in East 2.2 mph 5.8 mph 58 % 0.00 in
00:23 51.5 °F 37.2 °F 29.85 in SE 1.7 mph 4.6 mph 58 % 0.00 in
00:28 51.4 °F 37.5 °F 29.85 in ESE 1.2 mph 2.3 mph 59 % 0.00 in
00:33 51.3 °F 38.3 °F 29.84 in ESE 1.8 mph 4.6 mph 61 % 0.00 in
00:38 51.1 °F 37.7 °F 29.84 in SSE 2.0 mph 3.5 mph 60 % 0.00 in
00:43 51.0 °F 38.8 °F 29.84 in SSE 2.3 mph 8.1 mph 63 % 0.00 in
00:48 51.0 °F 39.6 °F 29.84 in SE 4.2 mph 6.9 mph 65 % 0.00 in
00:53 50.8 °F 40.6 °F 29.84 in SSE 5.3 mph 10.4 mph 68 % 0.00 in
00:58 50.7 °F 41.6 °F 29.83 in ESE 2.9 mph 5.8 mph 71 % 0.00 in
01:03 50.5 °F 42.2 °F 29.83 in SSE 4.8 mph 10.4 mph 73 % 0.00 in
01:08 50.3 °F 43.0 °F 29.82 in SE 3.0 mph 5.8 mph 76 % 0.00 in
01:13 50.1 °F 43.5 °F 29.82 in SE 3.6 mph 9.0 mph 78 % 0.00 in
01:18 49.9 °F 43.3 °F 29.81 in SSE 4.3 mph 11.0 mph 78 % 0.00 in
01:23 49.8 °F 43.5 °F 29.81 in SE 1.7 mph 8.1 mph 79 % 0.00 in
01:28 49.7 °F 43.5 °F 29.80 in South 3.7 mph 8.1 mph 79 % 0.00 in
01:33 49.6 °F 43.7 °F 29.80 in SE 5.7 mph 10.4 mph 80 % 0.00 in
01:38 49.4 °F 43.8 °F 29.80 in SE 8.3 mph 10.4 mph 81 % 0.00 in
01:43 49.3 °F 44.0 °F 29.79 in ESE 4.1 mph 13.8 mph 82 % 0.00 in
01:48 49.1 °F 44.2 °F 29.79 in SSE 7.5 mph 12.7 mph 83 % 0.00 in
01:53 49.1 °F 44.5 °F 29.78 in SE 9.2 mph 12.7 mph 84 % 0.00 in
01:59 49.0 °F 44.7 °F 29.77 in East 7.6 mph 13.8 mph 85 % 0.00 in
02:04 48.9 °F 45.2 °F 29.77 in South 5.4 mph 11.0 mph 87 % 0.00 in
02:09 48.9 °F 45.5 °F 29.77 in ESE 5.2 mph 10.4 mph 88 % 0.00 in
02:14 48.8 °F 45.4 °F 29.76 in SSE 7.7 mph 12.7 mph 88 % 0.00 in
02:19 48.8 °F 45.7 °F 29.76 in SSE 3.9 mph 5.8 mph 89 % 0.00 in
02:24 48.8 °F 46.0 °F 29.76 in South 9.3 mph 15.0 mph 90 % 0.00 in
02:29 48.8 °F 46.0 °F 29.75 in SE 9.0 mph 17.3 mph 90 % 0.00 in
02:34 48.8 °F 46.3 °F 29.74 in ESE 10.1 mph 17.3 mph 91 % 0.00 in
02:39 48.8 °F 46.3 °F 29.74 in ESE 6.6 mph 13.8 mph 91 % 0.00 in
02:44 48.8 °F 46.6 °F 29.74 in SSE 6.2 mph 12.0 mph 92 % 0.00 in
02:49 48.8 °F 46.6 °F 29.73 in East 4.7 mph 11.5 mph 92 % 0.00 in
02:54 48.9 °F 46.7 °F 29.74 in East 8.4 mph 16.1 mph 92 % 0.00 in
02:59 48.9 °F 47.0 °F 29.73 in SE 6.3 mph 12.7 mph 93 % 0.00 in
03:04 48.9 °F 47.0 °F 29.72 in SSE 9.0 mph 17.3 mph 93 % 0.00 in
03:05 48.9 °F 47.0 °F 29.72 in SE 4.2 mph 11.5 mph 93 % 0.00 in
03:10 48.9 °F 47.0 °F 29.73 in East 8.2 mph 11.5 mph 93 % 0.00 in
03:15 48.9 °F 47.2 °F 29.71 in SSE 8.2 mph 15.0 mph 94 % 0.00 in
03:20 48.9 °F 47.2 °F 29.72 in SE 8.3 mph 13.0 mph 94 % 0.00 in
03:25 48.9 °F 47.2 °F 29.71 in SSE 7.4 mph 15.0 mph 94 % 0.00 in
03:30 48.9 °F 47.2 °F 29.73 in SE 7.1 mph 14.0 mph 94 % 0.00 in
03:35 48.9 °F 47.2 °F 29.72 in SSE 4.2 mph 10.4 mph 94 % 0.00 in
03:40 48.9 °F 47.2 °F 29.71 in SE 6.7 mph 12.7 mph 94 % 0.00 in
03:45 48.9 °F 47.2 °F 29.71 in SSE 5.8 mph 15.0 mph 94 % 0.00 in
03:50 48.8 °F 47.2 °F 29.70 in SSE 7.3 mph 12.7 mph 94 % 0.00 in
03:55 48.7 °F 47.1 °F 29.70 in ESE 10.2 mph 19.6 mph 94 % 0.00 in
04:00 48.6 °F 47.0 °F 29.69 in SSE 9.0 mph 17.3 mph 94 % 0.00 in
04:05 48.6 °F 47.0 °F 29.69 in SSE 5.7 mph 15.0 mph 94 % 0.00 in
04:10 48.6 °F 47.0 °F 29.69 in ESE 5.5 mph 8.1 mph 94 % 0.00 in
04:15 48.6 °F 47.2 °F 29.68 in ESE 7.7 mph 11.5 mph 95 % 0.00 in
04:20 48.6 °F 47.2 °F 29.68 in SE 4.7 mph 6.9 mph 95 % 0.00 in
04:25 48.7 °F 47.3 °F 29.67 in SSE 7.9 mph 16.1 mph 95 % 0.00 in
04:30 48.8 °F 47.4 °F 29.66 in East 5.7 mph 8.1 mph 95 % 0.00 in
04:35 49.0 °F 47.9 °F 29.66 in SE 7.5 mph 19.6 mph 96 % 0.00 in
04:40 49.2 °F 48.1 °F 29.64 in SE 8.0 mph 13.0 mph 96 % 0.00 in
04:45 49.4 °F 48.3 °F 29.65 in East 7.0 mph 10.4 mph 96 % 0.00 in
04:50 49.5 °F 48.4 °F 29.64 in SE 4.9 mph 13.8 mph 96 % 0.00 in
04:55 49.6 °F 48.5 °F 29.63 in ESE 7.4 mph 15.0 mph 96 % 0.00 in
05:00 49.7 °F 48.6 °F 29.63 in ENE 4.6 mph 12.7 mph 96 % 0.00 in
05:05 49.8 °F 48.7 °F 29.63 in SSE 11.3 mph 17.3 mph 96 % 0.00 in
05:10 50.0 °F 48.9 °F 29.64 in South 3.4 mph 10.4 mph 96 % 0.00 in
05:15 50.1 °F 49.0 °F 29.67 in SW 3.9 mph 8.1 mph 96 % 0.00 in
05:19 50.2 °F 49.1 °F 29.66 in WNW 1.8 mph 4.6 mph 96 % 0.00 in
05:24 50.3 °F 49.2 °F 29.66 in WSW 1.8 mph 3.5 mph 96 % 0.01 in
05:29 50.2 °F 49.1 °F 29.66 in NNE 5.8 mph 8.1 mph 96 % 0.01 in
05:34 49.7 °F 48.6 °F 29.67 in West 0.1 mph 3.5 mph 96 % 0.01 in
05:39 49.5 °F 48.4 °F 29.66 in ENE 2.3 mph 5.8 mph 96 % 0.01 in
05:44 49.2 °F 48.1 °F 29.66 in SW 1.1 mph 3.5 mph 96 % 0.01 in
05:49 49.1 °F 48.0 °F 29.66 in South 0.9 mph 3.5 mph 96 % 0.01 in
05:54 49.1 °F 48.0 °F 29.66 in South 1.2 mph 2.3 mph 96 % 0.01 in
05:59 49.0 °F 47.9 °F 29.66 in ESE 1.9 mph 3.5 mph 96 % 0.01 in
06:04 49.0 °F 47.9 °F 29.65 in ESE 1.0 mph 1.2 mph 96 % 0.01 in
06:09 49.0 °F 47.9 °F 29.65 in NE 1.4 mph 2.3 mph 96 % 0.01 in
06:14 49.0 °F 47.9 °F 29.65 in NE 2.7 mph 3.5 mph 96 % 0.01 in
06:19 48.9 °F 47.8 °F 29.64 in NNE 0.7 mph 2.3 mph 96 % 0.01 in
06:24 48.4 °F 47.3 °F 29.64 in ENE 3.7 mph 6.9 mph 96 % 0.00 in
06:29 48.3 °F 47.2 °F 29.64 in ENE 3.7 mph 6.9 mph 96 % 0.00 in
06:35 48.2 °F 47.1 °F 29.63 in ENE 3.0 mph 6.9 mph 96 % 0.00 in
06:40 47.9 °F 46.8 °F 29.63 in ENE 0.8 mph 3.5 mph 96 % 0.01 in
06:45 48.1 °F 47.0 °F 29.62 in ENE 1.3 mph 3.5 mph 96 % 0.01 in
06:47 48.1 °F 47.0 °F 29.63 in NE 3.9 mph 4.6 mph 96 % 0.01 in
06:52 48.2 °F 47.1 °F 29.62 in ENE 2.7 mph 6.9 mph 96 % 0.01 in
06:57 48.2 °F 47.4 °F 29.62 in ENE 1.8 mph 4.6 mph 97 % 0.01 in
07:02 48.2 °F 47.1 °F 29.62 in ENE 1.0 mph 7.0 mph 96 % 0.00 in
07:07 48.1 °F 47.0 °F 29.62 in ENE 1.0 mph 3.0 mph 96 % 0.00 in
07:12 48.1 °F 47.3 °F 29.62 in ENE 1.0 mph 4.0 mph 97 % 0.00 in
07:17 48.1 °F 47.0 °F 29.62 in Calm   2.0 mph 96 % 0.00 in
07:22 48.2 °F 47.4 °F 29.62 in Calm   1.0 mph 97 % 0.00 in
07:27 48.4 °F 47.6 °F 29.61 in East 1.0 mph 2.0 mph 97 % 0.00 in
07:32 48.6 °F 47.8 °F 29.61 in East 1.0 mph 5.0 mph 97 % 0.00 in
07:37 49.0 °F 48.2 °F 29.61 in East 1.0 mph 3.0 mph 97 % 0.00 in
07:42 49.4 °F 48.6 °F 29.61 in SE 1.0 mph 4.0 mph 97 % 0.00 in
07:47 50.3 °F 49.4 °F 29.60 in SE 2.0 mph 4.0 mph 97 % 0.00 in
07:52 50.8 °F 50.2 °F 29.61 in Calm   3.0 mph 98 % 0.00 in
07:57 51.3 °F 50.8 °F 29.60 in SW 0.2 mph 3.5 mph 98 % 0.00 in
08:02 51.6 °F 51.0 °F 29.60 in SSW 1.0 mph 3.0 mph 98 % 0.00 in
08:07 52.0 °F 51.4 °F 29.60 in Calm   2.0 mph 98 % 0.00 in
08:12 52.2 °F 51.7 °F 29.60 in Calm   6.0 mph 98 % 0.00 in
08:17 52.4 °F 51.8 °F 29.60 in Calm   3.0 mph 98 % 0.00 in
08:22 52.5 °F 52.0 °F 29.60 in Calm   3.0 mph 98 % 0.00 in
08:27 52.6 °F 51.8 °F 29.59 in SSE 0.2 mph 1.2 mph 97 % 0.00 in
08:32 52.6 °F 51.8 °F 29.59 in Calm   2.3 mph 97 % 0.00 in
08:37 52.1 °F 51.6 °F 29.59 in NE 2.4 mph 6.9 mph 98 % 0.00 in
08:42 51.1 °F 50.3 °F 29.59 in NE 3.0 mph 8.0 mph 97 % 0.00 in
08:47 49.5 °F 48.5 °F 29.60 in NE 5.0 mph 8.0 mph 96 % 0.00 in
08:52 47.7 °F 46.3 °F 29.59 in ENE 3.0 mph 8.0 mph 95 % 0.00 in
08:57 46.4 °F 45.0 °F 29.59 in ESE 5.5 mph 9.2 mph 95 % 0.01 in
09:02 45.8 °F 44.7 °F 29.59 in East 3.8 mph 5.8 mph 96 % 0.01 in
09:07 45.5 °F 44.4 °F 29.59 in East 4.9 mph 9.2 mph 96 % 0.01 in
09:12 45.2 °F 44.1 °F 29.59 in East 6.0 mph 8.1 mph 96 % 0.01 in
09:17 44.9 °F 43.8 °F 29.59 in East 6.1 mph 9.2 mph 96 % 0.01 in
09:22 44.8 °F 43.7 °F 29.58 in East 4.1 mph 6.9 mph 96 % 0.01 in
09:27 44.5 °F 43.4 °F 29.58 in ENE 5.7 mph 8.1 mph 96 % 0.01 in
09:32 44.3 °F 43.2 °F 29.58 in East 5.2 mph 6.9 mph 96 % 0.01 in
09:37 44.2 °F 43.1 °F 29.58 in East 5.7 mph 8.1 mph 96 % 0.01 in
09:42 44.2 °F 43.4 °F 29.57 in East 6.6 mph 8.1 mph 97 % 0.00 in
09:47 44.2 °F 43.4 °F 29.57 in East 4.8 mph 6.9 mph 97 % 0.00 in
09:52 44.2 °F 43.4 °F 29.57 in East 5.4 mph 8.1 mph 97 % 0.00 in
09:58 44.1 °F 43.3 °F 29.57 in East 6.5 mph 8.1 mph 97 % 0.00 in
10:03 43.9 °F 43.1 °F 29.57 in ENE 5.0 mph 7.0 mph 97 % 0.00 in
10:08 43.9 °F 43.1 °F 29.57 in East 4.5 mph 8.1 mph 97 % 0.00 in
10:13 43.9 °F 43.1 °F 29.57 in East 4.0 mph 5.8 mph 97 % 0.00 in
10:18 43.8 °F 43.0 °F 29.57 in East 4.6 mph 5.8 mph 97 % 0.00 in
10:23 43.9 °F 43.1 °F 29.57 in East 6.3 mph 8.0 mph 97 % 0.00 in
10:28 44.0 °F 43.2 °F 29.57 in East 4.6 mph 6.0 mph 97 % 0.00 in
10:33 44.0 °F 43.2 °F 29.57 in East 4.7 mph 5.8 mph 97 % 0.01 in
10:38 43.9 °F 43.1 °F 29.57 in East 4.2 mph 5.8 mph 97 % 0.01 in
10:43 43.8 °F 43.0 °F 29.57 in East 4.5 mph 7.0 mph 97 % 0.01 in
10:48 43.8 °F 43.0 °F 29.57 in East 4.0 mph 5.8 mph 97 % 0.01 in
10:53 43.8 °F 43.0 °F 29.57 in East 5.2 mph 6.0 mph 97 % 0.01 in
10:58 43.8 °F 43.0 °F 29.57 in East 3.6 mph 5.8 mph 97 % 0.01 in
11:03 43.7 °F 42.9 °F 29.57 in East 4.7 mph 7.0 mph 97 % 0.01 in
11:08 43.6 °F 42.8 °F 29.57 in ENE 4.2 mph 6.9 mph 97 % 0.01 in
11:14 43.6 °F 42.8 °F 29.57 in ENE 4.0 mph 6.0 mph 97 % 0.01 in
11:19 43.6 °F 42.8 °F 29.57 in East 3.7 mph 6.0 mph 97 % 0.01 in
11:23 43.7 °F 42.9 °F 29.56 in East 5.7 mph 9.2 mph 97 % 0.01 in
11:28 43.7 °F 42.9 °F 29.56 in East 5.0 mph 5.8 mph 97 % 0.01 in
11:33 43.8 °F 43.0 °F 29.56 in East 3.4 mph 4.6 mph 97 % 0.00 in
11:38 44.0 °F 43.2 °F 29.56 in East 5.4 mph 6.9 mph 97 % 0.00 in
11:43 43.9 °F 43.1 °F 29.56 in East 5.8 mph 8.1 mph 97 % 0.00 in
11:48 43.8 °F 43.0 °F 29.56 in East 6.1 mph 9.2 mph 97 % 0.00 in
11:53 43.8 °F 43.0 °F 29.56 in East 6.8 mph 9.2 mph 97 % 0.00 in
11:58 43.8 °F 43.0 °F 29.56 in East 5.8 mph 8.1 mph 97 % 0.00 in
12:03 43.8 °F 43.0 °F 29.55 in East 3.4 mph 9.2 mph 97 % 0.00 in
12:08 43.8 °F 43.0 °F 29.55 in ENE 4.9 mph 8.1 mph 97 % 0.00 in
12:13 43.8 °F 43.0 °F 29.55 in East 5.7 mph 9.2 mph 97 % 0.00 in
12:18 43.8 °F 43.0 °F 29.55 in ENE 5.0 mph 8.1 mph 97 % 0.00 in
12:24 43.7 °F 42.9 °F 29.55 in ENE 4.3 mph 10.4 mph 97 % 0.00 in
12:29 43.7 °F 42.9 °F 29.55 in ENE 4.8 mph 5.8 mph 97 % 0.00 in
12:34 43.7 °F 42.9 °F 29.55 in ENE 5.3 mph 6.9 mph 97 % 0.00 in
12:39 43.6 °F 42.8 °F 29.55 in ENE 3.6 mph 5.8 mph 97 % 0.00 in
12:44 43.4 °F 42.6 °F 29.55 in ENE 6.2 mph 11.0 mph 97 % 0.00 in
12:49 43.3 °F 42.5 °F 29.55 in ENE 8.4 mph 11.5 mph 97 % 0.01 in
12:54 43.3 °F 42.5 °F 29.54 in East 9.7 mph 14.0 mph 97 % 0.01 in
12:59 43.4 °F 42.6 °F 29.54 in NE 10.0 mph 14.0 mph 97 % 0.01 in
13:04 43.3 °F 42.8 °F 29.55 in ENE 8.9 mph 16.1 mph 98 % 0.01 in
13:09 43.2 °F 42.7 °F 29.55 in East 11.2 mph 15.0 mph 98 % 0.01 in
13:14 43.2 °F 42.4 °F 29.55 in ENE 10.7 mph 16.1 mph 97 % 0.01 in
13:19 43.3 °F 42.8 °F 29.55 in ENE 11.8 mph 16.0 mph 98 % 0.01 in
13:24 43.1 °F 42.3 °F 29.56 in East 10.5 mph 13.8 mph 97 % 0.01 in
13:29 43.0 °F 42.2 °F 29.56 in ENE 10.7 mph 16.1 mph 97 % 0.01 in
13:35 42.9 °F 42.4 °F 29.57 in ENE 9.6 mph 13.8 mph 98 % 0.01 in
13:40 42.8 °F 42.3 °F 29.57 in ENE 8.3 mph 11.5 mph 98 % 0.01 in
13:45 42.7 °F 42.2 °F 29.57 in NE 9.5 mph 12.7 mph 98 % 0.01 in
13:50 42.7 °F 41.9 °F 29.57 in ENE 7.2 mph 11.5 mph 97 % 0.00 in
13:55 42.7 °F 41.9 °F 29.58 in ENE 8.0 mph 11.5 mph 97 % 0.00 in
14:00 42.6 °F 41.8 °F 29.58 in East 7.8 mph 10.4 mph 97 % 0.00 in
14:05 42.6 °F 41.8 °F 29.58 in ENE 8.8 mph 11.5 mph 97 % 0.00 in
14:10 42.7 °F 41.9 °F 29.58 in East 8.0 mph 10.4 mph 97 % 0.00 in
14:15 42.7 °F 42.2 °F 29.57 in ENE 7.2 mph 13.0 mph 98 % 0.00 in
14:20 42.7 °F 42.2 °F 29.58 in East 8.0 mph 10.4 mph 98 % 0.00 in
14:25 42.9 °F 42.4 °F 29.58 in ENE 6.5 mph 9.2 mph 98 % 0.00 in
14:30 43.0 °F 42.5 °F 29.58 in East 6.1 mph 8.1 mph 98 % 0.00 in
14:35 43.3 °F 42.8 °F 29.58 in East 5.1 mph 6.9 mph 98 % 0.01 in
14:40 43.4 °F 42.9 °F 29.57 in ENE 5.8 mph 10.4 mph 98 % 0.01 in
14:45 43.6 °F 43.1 °F 29.57 in ENE 5.6 mph 8.1 mph 98 % 0.01 in
14:50 43.6 °F 43.1 °F 29.58 in ENE 4.7 mph 7.0 mph 98 % 0.01 in
14:55 43.7 °F 43.2 °F 29.58 in East 5.3 mph 6.9 mph 98 % 0.01 in
15:00 43.6 °F 43.1 °F 29.58 in East 5.6 mph 7.0 mph 98 % 0.01 in
15:05 43.6 °F 43.1 °F 29.58 in ENE 5.2 mph 6.9 mph 98 % 0.01 in
15:10 43.6 °F 43.1 °F 29.58 in East 5.1 mph 6.0 mph 98 % 0.01 in
15:15 43.8 °F 43.3 °F 29.57 in East 5.7 mph 8.1 mph 98 % 0.01 in
15:20 44.1 °F 43.6 °F 29.57 in ENE 4.8 mph 6.9 mph 98 % 0.01 in
15:25 44.3 °F 43.8 °F 29.58 in East 5.2 mph 6.9 mph 98 % 0.01 in
15:30 44.4 °F 43.9 °F 29.58 in ENE 4.1 mph 5.0 mph 98 % 0.01 in
15:35 44.6 °F 44.1 °F 29.57 in East 5.4 mph 6.0 mph 98 % 0.00 in
15:40 44.8 °F 44.3 °F 29.58 in East 4.7 mph 6.9 mph 98 % 0.00 in
15:45 45.1 °F 44.6 °F 29.57 in East 4.8 mph 6.9 mph 98 % 0.00 in
15:50 45.2 °F 44.7 °F 29.57 in East 4.6 mph 6.0 mph 98 % 0.00 in
15:55 45.1 °F 44.6 °F 29.57 in East 3.3 mph 4.6 mph 98 % 0.00 in
16:00 45.0 °F 44.5 °F 29.58 in East 3.2 mph 4.6 mph 98 % 0.00 in
16:06 44.9 °F 44.4 °F 29.58 in East 2.9 mph 4.6 mph 98 % 0.00 in
16:11 44.8 °F 44.3 °F 29.58 in ENE 2.6 mph 4.0 mph 98 % 0.00 in
16:16 44.7 °F 44.2 °F 29.58 in ENE 2.6 mph 3.5 mph 98 % 0.00 in
16:21 44.7 °F 44.2 °F 29.58 in East 3.2 mph 3.5 mph 98 % 0.00 in
16:26 44.9 °F 44.4 °F 29.58 in ENE 2.7 mph 4.0 mph 98 % 0.00 in
16:31 45.1 °F 44.6 °F 29.58 in ENE 3.0 mph 6.9 mph 98 % 0.00 in
16:36 45.3 °F 44.8 °F 29.58 in ENE 4.6 mph 6.9 mph 98 % 0.00 in
16:41 45.2 °F 44.7 °F 29.58 in ENE 2.5 mph 3.5 mph 98 % 0.00 in
16:46 45.2 °F 44.7 °F 29.58 in East 4.1 mph 6.0 mph 98 % 0.00 in
16:51 45.2 °F 44.7 °F 29.58 in ENE 3.2 mph 8.1 mph 98 % 0.00 in
16:56 45.3 °F 44.8 °F 29.58 in ENE 3.8 mph 5.8 mph 98 % 0.00 in
17:01 45.2 °F 44.7 °F 29.58 in ENE 4.7 mph 8.1 mph 98 % 0.00 in
17:06 45.2 °F 44.7 °F 29.59 in NE 3.3 mph 3.5 mph 98 % 0.01 in
17:11 45.2 °F 44.7 °F 29.59 in ENE 4.1 mph 6.9 mph 98 % 0.01 in
17:16 45.0 °F 44.5 °F 29.59 in ENE 4.2 mph 5.8 mph 98 % 0.01 in
17:21 45.0 °F 44.5 °F 29.59 in ENE 5.3 mph 8.1 mph 98 % 0.01 in
17:26 44.9 °F 44.4 °F 29.59 in ENE 2.6 mph 6.9 mph 98 % 0.01 in
17:31 44.9 °F 44.4 °F 29.60 in East 1.9 mph 3.5 mph 98 % 0.01 in
17:37 45.0 °F 44.5 °F 29.59 in East 3.0 mph 4.6 mph 98 % 0.01 in
17:42 45.1 °F 44.6 °F 29.59 in East 4.0 mph 6.0 mph 98 % 0.01 in
17:47 45.2 °F 44.7 °F 29.60 in ENE 4.0 mph 5.8 mph 98 % 0.02 in
17:52 45.1 °F 44.6 °F 29.60 in ENE 3.4 mph 5.0 mph 98 % 0.02 in
17:57 44.7 °F 44.2 °F 29.60 in ENE 4.0 mph 5.0 mph 98 % 0.02 in
18:02 44.6 °F 44.1 °F 29.61 in ENE 3.2 mph 5.0 mph 98 % 0.02 in
18:07 44.6 °F 44.1 °F 29.61 in ENE 2.2 mph 3.5 mph 98 % 0.01 in
18:12 44.6 °F 44.1 °F 29.61 in East 2.8 mph 3.5 mph 98 % 0.01 in
18:17 44.5 °F 44.0 °F 29.62 in ENE 3.9 mph 7.0 mph 98 % 0.01 in
18:22 44.5 °F 44.0 °F 29.61 in ENE 3.5 mph 5.8 mph 98 % 0.01 in
18:27 44.4 °F 43.9 °F 29.61 in ENE 2.3 mph 3.5 mph 98 % 0.02 in
18:32 44.3 °F 43.8 °F 29.61 in East 2.6 mph 3.5 mph 98 % 0.02 in
18:37 44.3 °F 43.8 °F 29.62 in ENE 3.4 mph 4.6 mph 98 % 0.02 in
18:42 44.2 °F 43.7 °F 29.62 in ENE 3.3 mph 4.6 mph 98 % 0.02 in
18:47 44.1 °F 43.6 °F 29.62 in NE 2.8 mph 5.0 mph 98 % 0.01 in
18:52 44.1 °F 43.6 °F 29.61 in ENE 3.8 mph 4.6 mph 98 % 0.01 in
18:57 44.0 °F 43.5 °F 29.61 in ENE 3.6 mph 6.9 mph 98 % 0.01 in
19:02 44.0 °F 43.5 °F 29.61 in ENE 2.9 mph 4.6 mph 98 % 0.01 in
19:07 43.9 °F 43.4 °F 29.61 in ENE 6.0 mph 8.0 mph 98 % 0.00 in
19:12 43.9 °F 43.4 °F 29.61 in ENE 5.0 mph 9.0 mph 98 % 0.00 in
19:17 43.9 °F 43.4 °F 29.62 in ENE 2.0 mph 5.0 mph 98 % 0.00 in
19:22 43.9 °F 43.4 °F 29.61 in East 4.5 mph 5.8 mph 98 % 0.02 in
19:27 43.9 °F 43.4 °F 29.61 in East 3.0 mph 6.0 mph 98 % 0.00 in
19:32 43.9 °F 43.4 °F 29.61 in East 5.0 mph 6.0 mph 98 % 0.00 in
19:37 44.0 °F 43.5 °F 29.61 in East 6.0 mph 8.0 mph 98 % 0.00 in
19:42 44.1 °F 43.6 °F 29.61 in East 6.0 mph 8.0 mph 98 % 0.00 in
19:47 44.1 °F 43.6 °F 29.61 in East 6.0 mph 8.0 mph 98 % 0.00 in
19:52 44.1 °F 43.6 °F 29.61 in East 6.0 mph 8.0 mph 98 % 0.00 in
19:57 44.1 °F 43.6 °F 29.61 in East 5.7 mph 7.0 mph 98 % 0.01 in
20:02 44.1 °F 43.6 °F 29.62 in East 4.2 mph 5.8 mph 98 % 0.01 in
20:08 44.1 °F 43.3 °F 29.63 in ENE 2.8 mph 3.5 mph 97 % 0.01 in
21:19 43.2 °F 42.4 °F 29.67 in ESE 5.1 mph 9.2 mph 97 % 0.00 in
21:24 43.1 °F 42.3 °F 29.68 in ENE 3.8 mph 8.1 mph 97 % 0.00 in
21:29 43.1 °F 42.3 °F 29.68 in ENE 4.7 mph 6.9 mph 97 % 0.00 in
21:34 43.1 °F 42.3 °F 29.68 in ENE 3.8 mph 5.8 mph 97 % 0.00 in
21:39 43.0 °F 42.2 °F 29.68 in ENE 4.3 mph 8.1 mph 97 % 0.00 in
21:44 42.9 °F 42.1 °F 29.69 in ENE 1.4 mph 3.5 mph 97 % 0.00 in
22:01 42.8 °F 42.0 °F 29.69 in East 4.2 mph 7.0 mph 97 % 0.00 in
22:06 42.7 °F 41.9 °F 29.70 in NE 2.3 mph 3.5 mph 97 % 0.00 in
22:11 42.7 °F 41.9 °F 29.70 in NE 0.4 mph 2.3 mph 97 % 0.00 in
22:16 42.7 °F 41.9 °F 29.71 in NNE 3.1 mph 6.9 mph 97 % 0.00 in
22:22 42.7 °F 41.9 °F 29.71 in NNE 4.0 mph 6.9 mph 97 % 0.00 in
22:27 42.7 °F 41.9 °F 29.72 in NNE 3.6 mph 10.0 mph 97 % 0.00 in
22:32 42.6 °F 41.8 °F 29.73 in NNE 5.5 mph 7.0 mph 97 % 0.00 in
22:37 42.6 °F 41.8 °F 29.72 in NE 1.9 mph 3.5 mph 97 % 0.00 in
22:42 42.6 °F 41.8 °F 29.71 in NNE 2.4 mph 3.5 mph 97 % 0.00 in
22:47 42.5 °F 41.7 °F 29.71 in ENE 2.4 mph 3.5 mph 97 % 0.00 in
22:52 42.5 °F 41.7 °F 29.71 in ENE 2.9 mph 3.5 mph 97 % 0.00 in
22:57 42.5 °F 41.7 °F 29.70 in ENE 2.8 mph 3.5 mph 97 % 0.00 in
23:02 42.5 °F 41.7 °F 29.69 in East 2.2 mph 4.6 mph 97 % 0.00 in
23:07 42.5 °F 41.7 °F 29.70 in East 5.0 mph 5.8 mph 97 % 0.00 in
23:12 42.6 °F 41.8 °F 29.70 in East 2.6 mph 5.8 mph 97 % 0.00 in
23:17 42.5 °F 41.7 °F 29.71 in ENE 2.4 mph 3.5 mph 97 % 0.00 in
23:22 42.5 °F 41.7 °F 29.71 in ENE 1.6 mph 3.5 mph 97 % 0.00 in
23:27 42.5 °F 41.7 °F 29.71 in ENE 2.0 mph 3.0 mph 97 % 0.00 in
23:32 42.6 °F 41.8 °F 29.71 in ENE 1.8 mph 2.3 mph 97 % 0.00 in
23:37 42.5 °F 41.7 °F 29.72 in NE 2.5 mph 4.0 mph 97 % 0.00 in
23:42 42.5 °F 41.7 °F 29.72 in NE 1.5 mph 3.5 mph 97 % 0.00 in
23:47 42.5 °F 41.7 °F 29.71 in ENE 4.2 mph 6.9 mph 97 % 0.00 in
23:52 42.4 °F 41.6 °F 29.72 in ENE 0.1 mph 2.3 mph 97 % 0.00 in
23:57 42.4 °F 41.6 °F 29.72 in NE 1.0 mph 3.5 mph 97 % 0.00 in
Crab Meadow Weather
Compliments of Weather Underground - 3 mb

Script developed by  Jim McMurry - jmcmurry@mwt.net Adapted for the template by  Wim van der Kuil - Leuven-Template.eu

Lightning: Lightning is equivalent to the electric power of 100 million light bulbs in your face.